sensor_id;sensor_type;location;lat;lon;timestamp;temperature;humidity
64501;DHT22;50874;24.150;-110.320;2023-05-23T00:01:04;35.90;42.00
64501;DHT22;50874;24.150;-110.320;2023-05-23T00:03:34;35.90;42.70
64501;DHT22;50874;24.150;-110.320;2023-05-23T00:06:01;35.80;44.20
64501;DHT22;50874;24.150;-110.320;2023-05-23T00:08:29;35.70;42.80
64501;DHT22;50874;24.150;-110.320;2023-05-23T00:10:55;35.60;44.30
64501;DHT22;50874;24.150;-110.320;2023-05-23T00:13:22;35.40;45.10
64501;DHT22;50874;24.150;-110.320;2023-05-23T00:15:48;35.30;45.40
64501;DHT22;50874;24.150;-110.320;2023-05-23T00:18:15;35.10;45.50
64501;DHT22;50874;24.150;-110.320;2023-05-23T00:20:42;35.10;43.90
64501;DHT22;50874;24.150;-110.320;2023-05-23T00:23:09;35.00;44.00
64501;DHT22;50874;24.150;-110.320;2023-05-23T00:25:36;34.80;45.20
64501;DHT22;50874;24.150;-110.320;2023-05-23T00:28:03;34.90;44.00
64501;DHT22;50874;24.150;-110.320;2023-05-23T00:30:32;34.90;44.90
64501;DHT22;50874;24.150;-110.320;2023-05-23T00:32:59;34.80;47.30
64501;DHT22;50874;24.150;-110.320;2023-05-23T00:35:26;34.70;46.40
64501;DHT22;50874;24.150;-110.320;2023-05-23T00:37:52;34.50;46.40
64501;DHT22;50874;24.150;-110.320;2023-05-23T00:40:19;34.30;46.60
64501;DHT22;50874;24.150;-110.320;2023-05-23T00:42:47;34.20;46.90
64501;DHT22;50874;24.150;-110.320;2023-05-23T00:45:13;34.10;47.60
64501;DHT22;50874;24.150;-110.320;2023-05-23T00:47:41;34.10;48.60
64501;DHT22;50874;24.150;-110.320;2023-05-23T00:50:12;34.10;48.50
64501;DHT22;50874;24.150;-110.320;2023-05-23T00:52:43;33.90;45.50
64501;DHT22;50874;24.150;-110.320;2023-05-23T00:55:11;33.80;49.90
64501;DHT22;50874;24.150;-110.320;2023-05-23T00:57:38;33.60;50.10
64501;DHT22;50874;24.150;-110.320;2023-05-23T01:00:07;33.60;50.20
64501;DHT22;50874;24.150;-110.320;2023-05-23T01:02:45;33.50;50.40
64501;DHT22;50874;24.150;-110.320;2023-05-23T01:05:13;33.30;51.70
64501;DHT22;50874;24.150;-110.320;2023-05-23T01:07:48;33.00;53.30
64501;DHT22;50874;24.150;-110.320;2023-05-23T01:10:17;33.10;54.30
64501;DHT22;50874;24.150;-110.320;2023-05-23T01:13:21;32.90;54.60
64501;DHT22;50874;24.150;-110.320;2023-05-23T01:18:55;32.50;55.30
64501;DHT22;50874;24.150;-110.320;2023-05-23T01:21:21;32.60;56.10
64501;DHT22;50874;24.150;-110.320;2023-05-23T01:24:14;32.30;57.20
64501;DHT22;50874;24.150;-110.320;2023-05-23T01:27:07;32.30;58.20
64501;DHT22;50874;24.150;-110.320;2023-05-23T01:29:38;32.00;58.00
64501;DHT22;50874;24.150;-110.320;2023-05-23T01:32:10;32.00;58.00
64501;DHT22;50874;24.150;-110.320;2023-05-23T01:34:37;31.90;58.70
64501;DHT22;50874;24.150;-110.320;2023-05-23T01:37:09;31.60;59.70
64501;DHT22;50874;24.150;-110.320;2023-05-23T01:39:36;31.50;59.70
64501;DHT22;50874;24.150;-110.320;2023-05-23T01:42:03;31.30;60.10
64501;DHT22;50874;24.150;-110.320;2023-05-23T01:44:31;31.00;61.30
64501;DHT22;50874;24.150;-110.320;2023-05-23T01:47:00;30.90;61.70
64501;DHT22;50874;24.150;-110.320;2023-05-23T01:49:28;30.70;62.60
64501;DHT22;50874;24.150;-110.320;2023-05-23T01:51:56;30.60;63.60
64501;DHT22;50874;24.150;-110.320;2023-05-23T01:54:23;30.60;65.20
64501;DHT22;50874;24.150;-110.320;2023-05-23T01:56:50;30.50;66.20
64501;DHT22;50874;24.150;-110.320;2023-05-23T01:59:17;30.20;66.10
64501;DHT22;50874;24.150;-110.320;2023-05-23T02:01:43;30.10;66.80
64501;DHT22;50874;24.150;-110.320;2023-05-23T02:04:10;29.90;67.70
64501;DHT22;50874;24.150;-110.320;2023-05-23T02:06:36;29.60;69.20
64501;DHT22;50874;24.150;-110.320;2023-05-23T02:09:02;29.50;69.80
64501;DHT22;50874;24.150;-110.320;2023-05-23T02:11:29;29.40;70.10
64501;DHT22;50874;24.150;-110.320;2023-05-23T02:13:56;29.30;71.00
64501;DHT22;50874;24.150;-110.320;2023-05-23T02:16:22;29.10;72.80
64501;DHT22;50874;24.150;-110.320;2023-05-23T02:18:51;28.90;73.20
64501;DHT22;50874;24.150;-110.320;2023-05-23T02:21:23;28.70;74.20
64501;DHT22;50874;24.150;-110.320;2023-05-23T02:23:49;28.60;74.80
64501;DHT22;50874;24.150;-110.320;2023-05-23T02:26:16;28.50;75.60
64501;DHT22;50874;24.150;-110.320;2023-05-23T02:28:43;28.40;76.00
64501;DHT22;50874;24.150;-110.320;2023-05-23T02:31:10;28.40;76.50
64501;DHT22;50874;24.150;-110.320;2023-05-23T02:33:36;28.20;77.50
64501;DHT22;50874;24.150;-110.320;2023-05-23T02:36:03;28.20;78.40
64501;DHT22;50874;24.150;-110.320;2023-05-23T02:38:30;28.20;79.20
64501;DHT22;50874;24.150;-110.320;2023-05-23T02:40:56;28.00;80.50
64501;DHT22;50874;24.150;-110.320;2023-05-23T02:43:23;27.90;81.40
64501;DHT22;50874;24.150;-110.320;2023-05-23T02:45:49;27.80;82.50
64501;DHT22;50874;24.150;-110.320;2023-05-23T02:48:16;27.60;83.50
64501;DHT22;50874;24.150;-110.320;2023-05-23T02:50:42;27.50;84.40
64501;DHT22;50874;24.150;-110.320;2023-05-23T02:53:09;27.20;85.40
64501;DHT22;50874;24.150;-110.320;2023-05-23T02:55:35;27.20;86.20
64501;DHT22;50874;24.150;-110.320;2023-05-23T02:58:03;27.10;87.10
64501;DHT22;50874;24.150;-110.320;2023-05-23T03:00:30;27.00;88.00
64501;DHT22;50874;24.150;-110.320;2023-05-23T03:03:00;27.00;88.60
64501;DHT22;50874;24.150;-110.320;2023-05-23T03:05:27;26.90;89.50
64501;DHT22;50874;24.150;-110.320;2023-05-23T03:07:53;26.80;90.20
64501;DHT22;50874;24.150;-110.320;2023-05-23T03:10:20;26.70;90.80
64501;DHT22;50874;24.150;-110.320;2023-05-23T03:12:46;26.70;91.20
64501;DHT22;50874;24.150;-110.320;2023-05-23T03:15:13;26.60;91.60
64501;DHT22;50874;24.150;-110.320;2023-05-23T03:17:39;26.40;92.10
64501;DHT22;50874;24.150;-110.320;2023-05-23T03:20:06;26.30;92.60
64501;DHT22;50874;24.150;-110.320;2023-05-23T03:22:35;26.30;92.90
64501;DHT22;50874;24.150;-110.320;2023-05-23T03:25:02;26.30;93.20
64501;DHT22;50874;24.150;-110.320;2023-05-23T03:27:29;26.20;93.40
64501;DHT22;50874;24.150;-110.320;2023-05-23T03:29:55;26.10;93.70
64501;DHT22;50874;24.150;-110.320;2023-05-23T03:32:22;26.00;94.10
64501;DHT22;50874;24.150;-110.320;2023-05-23T03:34:48;25.90;94.60
64501;DHT22;50874;24.150;-110.320;2023-05-23T03:37:14;25.80;94.80
64501;DHT22;50874;24.150;-110.320;2023-05-23T03:39:41;25.80;95.00
64501;DHT22;50874;24.150;-110.320;2023-05-23T03:42:07;25.70;95.50
64501;DHT22;50874;24.150;-110.320;2023-05-23T03:44:34;25.70;96.00
64501;DHT22;50874;24.150;-110.320;2023-05-23T03:47:00;25.60;96.30
64501;DHT22;50874;24.150;-110.320;2023-05-23T03:49:27;25.60;96.50
64501;DHT22;50874;24.150;-110.320;2023-05-23T03:51:53;25.60;96.70
64501;DHT22;50874;24.150;-110.320;2023-05-23T03:54:20;25.60;96.90
64501;DHT22;50874;24.150;-110.320;2023-05-23T03:56:46;25.60;97.10
64501;DHT22;50874;24.150;-110.320;2023-05-23T03:59:13;25.60;97.30
64501;DHT22;50874;24.150;-110.320;2023-05-23T04:01:39;25.60;97.40
64501;DHT22;50874;24.150;-110.320;2023-05-23T04:04:06;25.60;97.70
64501;DHT22;50874;24.150;-110.320;2023-05-23T04:06:32;25.60;97.90
64501;DHT22;50874;24.150;-110.320;2023-05-23T04:08:59;25.50;98.60
64501;DHT22;50874;24.150;-110.320;2023-05-23T04:11:27;25.40;98.80
64501;DHT22;50874;24.150;-110.320;2023-05-23T04:13:53;25.40;99.20
64501;DHT22;50874;24.150;-110.320;2023-05-23T04:16:20;25.40;99.40
64501;DHT22;50874;24.150;-110.320;2023-05-23T04:18:48;25.40;99.50
64501;DHT22;50874;24.150;-110.320;2023-05-23T04:21:16;25.40;99.80
64501;DHT22;50874;24.150;-110.320;2023-05-23T04:23:43;25.40;99.90
64501;DHT22;50874;24.150;-110.320;2023-05-23T04:26:09;25.40;99.90
64501;DHT22;50874;24.150;-110.320;2023-05-23T04:28:36;25.20;99.90
64501;DHT22;50874;24.150;-110.320;2023-05-23T04:31:04;25.10;99.90
64501;DHT22;50874;24.150;-110.320;2023-05-23T04:33:31;25.10;99.90
64501;DHT22;50874;24.150;-110.320;2023-05-23T04:35:59;25.00;99.90
64501;DHT22;50874;24.150;-110.320;2023-05-23T04:38:25;25.00;99.90
64501;DHT22;50874;24.150;-110.320;2023-05-23T04:40:53;25.00;99.90
64501;DHT22;50874;24.150;-110.320;2023-05-23T04:43:19;24.90;99.90
64501;DHT22;50874;24.150;-110.320;2023-05-23T04:45:49;24.90;99.90
64501;DHT22;50874;24.150;-110.320;2023-05-23T04:48:15;24.80;99.90
64501;DHT22;50874;24.150;-110.320;2023-05-23T04:50:42;24.80;99.90
64501;DHT22;50874;24.150;-110.320;2023-05-23T04:53:09;24.70;99.90
64501;DHT22;50874;24.150;-110.320;2023-05-23T04:55:35;24.60;99.90
64501;DHT22;50874;24.150;-110.320;2023-05-23T04:58:02;24.50;99.90
64501;DHT22;50874;24.150;-110.320;2023-05-23T05:00:29;24.40;99.90
64501;DHT22;50874;24.150;-110.320;2023-05-23T05:02:55;24.50;99.90
64501;DHT22;50874;24.150;-110.320;2023-05-23T05:05:21;24.50;99.90
64501;DHT22;50874;24.150;-110.320;2023-05-23T05:07:48;24.30;99.90
64501;DHT22;50874;24.150;-110.320;2023-05-23T05:10:14;24.30;99.90
64501;DHT22;50874;24.150;-110.320;2023-05-23T05:12:44;24.20;99.90
64501;DHT22;50874;24.150;-110.320;2023-05-23T05:15:17;24.20;99.90
64501;DHT22;50874;24.150;-110.320;2023-05-23T05:17:44;24.00;99.90
64501;DHT22;50874;24.150;-110.320;2023-05-23T05:20:11;23.90;99.90
64501;DHT22;50874;24.150;-110.320;2023-05-23T05:22:38;23.90;99.90
64501;DHT22;50874;24.150;-110.320;2023-05-23T05:25:08;23.90;99.90
64501;DHT22;50874;24.150;-110.320;2023-05-23T05:27:36;23.80;99.90
64501;DHT22;50874;24.150;-110.320;2023-05-23T05:30:09;23.80;99.90
64501;DHT22;50874;24.150;-110.320;2023-05-23T05:32:36;23.70;99.90
64501;DHT22;50874;24.150;-110.320;2023-05-23T05:35:02;23.60;99.90
64501;DHT22;50874;24.150;-110.320;2023-05-23T05:37:29;23.60;99.90
64501;DHT22;50874;24.150;-110.320;2023-05-23T05:39:56;23.50;99.90
64501;DHT22;50874;24.150;-110.320;2023-05-23T05:42:22;23.40;99.90
64501;DHT22;50874;24.150;-110.320;2023-05-23T05:44:49;23.30;99.90
64501;DHT22;50874;24.150;-110.320;2023-05-23T05:47:15;23.20;99.90
64501;DHT22;50874;24.150;-110.320;2023-05-23T05:49:45;23.20;99.90
64501;DHT22;50874;24.150;-110.320;2023-05-23T05:52:11;23.10;99.90
64501;DHT22;50874;24.150;-110.320;2023-05-23T05:54:38;23.10;99.90
64501;DHT22;50874;24.150;-110.320;2023-05-23T05:57:04;23.10;99.90
64501;DHT22;50874;24.150;-110.320;2023-05-23T05:59:31;23.00;99.90
64501;DHT22;50874;24.150;-110.320;2023-05-23T06:01:57;22.90;99.90
64501;DHT22;50874;24.150;-110.320;2023-05-23T06:04:23;22.90;99.90
64501;DHT22;50874;24.150;-110.320;2023-05-23T06:06:50;23.00;99.90
64501;DHT22;50874;24.150;-110.320;2023-05-23T06:09:16;23.00;99.90
64501;DHT22;50874;24.150;-110.320;2023-05-23T06:11:43;22.90;99.90
64501;DHT22;50874;24.150;-110.320;2023-05-23T06:14:09;23.00;99.90
64501;DHT22;50874;24.150;-110.320;2023-05-23T06:16:36;23.00;99.90
64501;DHT22;50874;24.150;-110.320;2023-05-23T06:19:02;23.00;99.90
64501;DHT22;50874;24.150;-110.320;2023-05-23T06:21:29;23.00;99.90
64501;DHT22;50874;24.150;-110.320;2023-05-23T06:23:56;23.00;99.90
64501;DHT22;50874;24.150;-110.320;2023-05-23T06:26:22;23.00;99.90
64501;DHT22;50874;24.150;-110.320;2023-05-23T06:28:48;23.00;99.90
64501;DHT22;50874;24.150;-110.320;2023-05-23T06:31:15;23.00;99.90
64501;DHT22;50874;24.150;-110.320;2023-05-23T06:33:41;22.90;99.90
64501;DHT22;50874;24.150;-110.320;2023-05-23T06:36:08;22.90;99.90
64501;DHT22;50874;24.150;-110.320;2023-05-23T06:38:34;22.90;99.90
64501;DHT22;50874;24.150;-110.320;2023-05-23T06:41:01;22.90;99.90
64501;DHT22;50874;24.150;-110.320;2023-05-23T06:43:28;22.90;99.90
64501;DHT22;50874;24.150;-110.320;2023-05-23T06:45:55;22.80;99.90
64501;DHT22;50874;24.150;-110.320;2023-05-23T06:48:21;22.80;99.90
64501;DHT22;50874;24.150;-110.320;2023-05-23T06:50:48;22.80;99.90
64501;DHT22;50874;24.150;-110.320;2023-05-23T06:53:14;22.80;99.90
64501;DHT22;50874;24.150;-110.320;2023-05-23T06:55:41;22.80;99.90
64501;DHT22;50874;24.150;-110.320;2023-05-23T06:58:07;22.80;99.90
64501;DHT22;50874;24.150;-110.320;2023-05-23T07:00:34;22.80;99.90
64501;DHT22;50874;24.150;-110.320;2023-05-23T07:03:01;22.80;99.90
64501;DHT22;50874;24.150;-110.320;2023-05-23T07:05:28;22.70;99.90
64501;DHT22;50874;24.150;-110.320;2023-05-23T07:07:55;22.80;99.90
64501;DHT22;50874;24.150;-110.320;2023-05-23T07:10:21;22.70;99.90
64501;DHT22;50874;24.150;-110.320;2023-05-23T07:12:48;22.70;99.90
64501;DHT22;50874;24.150;-110.320;2023-05-23T07:15:14;22.60;99.90
64501;DHT22;50874;24.150;-110.320;2023-05-23T07:17:41;22.60;99.90
64501;DHT22;50874;24.150;-110.320;2023-05-23T07:20:07;22.60;99.90
64501;DHT22;50874;24.150;-110.320;2023-05-23T07:22:34;22.60;99.90
64501;DHT22;50874;24.150;-110.320;2023-05-23T07:25:00;22.60;99.90
64501;DHT22;50874;24.150;-110.320;2023-05-23T07:27:27;22.50;99.90
64501;DHT22;50874;24.150;-110.320;2023-05-23T07:29:54;22.50;99.90
64501;DHT22;50874;24.150;-110.320;2023-05-23T07:32:22;22.40;99.90
64501;DHT22;50874;24.150;-110.320;2023-05-23T07:34:48;22.40;99.90
64501;DHT22;50874;24.150;-110.320;2023-05-23T07:37:15;22.30;99.90
64501;DHT22;50874;24.150;-110.320;2023-05-23T07:39:41;22.30;99.90
64501;DHT22;50874;24.150;-110.320;2023-05-23T07:42:08;22.20;99.90
64501;DHT22;50874;24.150;-110.320;2023-05-23T07:44:34;22.10;99.90
64501;DHT22;50874;24.150;-110.320;2023-05-23T07:47:01;22.00;99.90
64501;DHT22;50874;24.150;-110.320;2023-05-23T07:49:27;21.90;99.90
64501;DHT22;50874;24.150;-110.320;2023-05-23T07:51:53;21.80;99.90
64501;DHT22;50874;24.150;-110.320;2023-05-23T07:54:20;21.80;99.90
64501;DHT22;50874;24.150;-110.320;2023-05-23T07:56:46;21.70;99.90
64501;DHT22;50874;24.150;-110.320;2023-05-23T07:59:13;21.60;99.90
64501;DHT22;50874;24.150;-110.320;2023-05-23T08:01:39;21.60;99.90
64501;DHT22;50874;24.150;-110.320;2023-05-23T08:04:07;21.50;99.90
64501;DHT22;50874;24.150;-110.320;2023-05-23T08:06:33;21.30;99.90
64501;DHT22;50874;24.150;-110.320;2023-05-23T08:09:00;21.30;99.90
64501;DHT22;50874;24.150;-110.320;2023-05-23T08:11:27;21.20;99.90
64501;DHT22;50874;24.150;-110.320;2023-05-23T08:13:55;21.20;99.90
64501;DHT22;50874;24.150;-110.320;2023-05-23T08:16:21;21.10;99.90
64501;DHT22;50874;24.150;-110.320;2023-05-23T08:18:48;21.10;99.90
64501;DHT22;50874;24.150;-110.320;2023-05-23T08:21:14;21.00;99.90
64501;DHT22;50874;24.150;-110.320;2023-05-23T08:23:41;21.00;99.90
64501;DHT22;50874;24.150;-110.320;2023-05-23T08:26:07;21.00;99.90
64501;DHT22;50874;24.150;-110.320;2023-05-23T08:28:34;20.90;99.90
64501;DHT22;50874;24.150;-110.320;2023-05-23T08:31:00;20.80;99.90
64501;DHT22;50874;24.150;-110.320;2023-05-23T08:33:26;20.80;99.90
64501;DHT22;50874;24.150;-110.320;2023-05-23T08:35:53;20.80;99.90
64501;DHT22;50874;24.150;-110.320;2023-05-23T08:38:20;20.80;99.90
64501;DHT22;50874;24.150;-110.320;2023-05-23T08:40:50;20.70;99.90
64501;DHT22;50874;24.150;-110.320;2023-05-23T08:43:17;20.70;99.90
64501;DHT22;50874;24.150;-110.320;2023-05-23T08:45:44;20.70;99.90
64501;DHT22;50874;24.150;-110.320;2023-05-23T08:48:12;20.60;99.90
64501;DHT22;50874;24.150;-110.320;2023-05-23T08:50:46;20.60;99.90
64501;DHT22;50874;24.150;-110.320;2023-05-23T08:53:15;20.60;99.90
64501;DHT22;50874;24.150;-110.320;2023-05-23T08:55:47;20.60;99.90
64501;DHT22;50874;24.150;-110.320;2023-05-23T08:58:17;20.50;99.90
64501;DHT22;50874;24.150;-110.320;2023-05-23T09:00:50;20.50;99.90
64501;DHT22;50874;24.150;-110.320;2023-05-23T09:03:18;20.60;99.90
64501;DHT22;50874;24.150;-110.320;2023-05-23T09:05:46;20.60;99.90
64501;DHT22;50874;24.150;-110.320;2023-05-23T09:08:13;20.60;99.90
64501;DHT22;50874;24.150;-110.320;2023-05-23T09:10:41;20.60;99.90
64501;DHT22;50874;24.150;-110.320;2023-05-23T09:13:08;20.70;99.90
64501;DHT22;50874;24.150;-110.320;2023-05-23T09:15:34;20.70;99.90
64501;DHT22;50874;24.150;-110.320;2023-05-23T09:18:01;20.70;99.90
64501;DHT22;50874;24.150;-110.320;2023-05-23T09:20:28;20.80;99.90
64501;DHT22;50874;24.150;-110.320;2023-05-23T09:22:55;20.80;99.90
64501;DHT22;50874;24.150;-110.320;2023-05-23T09:25:22;20.90;99.90
64501;DHT22;50874;24.150;-110.320;2023-05-23T09:27:50;20.90;99.90
64501;DHT22;50874;24.150;-110.320;2023-05-23T09:30:17;20.90;99.90
64501;DHT22;50874;24.150;-110.320;2023-05-23T09:32:59;20.90;99.90
64501;DHT22;50874;24.150;-110.320;2023-05-23T09:35:27;20.90;99.90
64501;DHT22;50874;24.150;-110.320;2023-05-23T09:37:55;20.90;99.90
64501;DHT22;50874;24.150;-110.320;2023-05-23T09:40:29;21.00;99.90
64501;DHT22;50874;24.150;-110.320;2023-05-23T09:43:04;21.00;99.90
64501;DHT22;50874;24.150;-110.320;2023-05-23T09:45:32;21.00;99.90
64501;DHT22;50874;24.150;-110.320;2023-05-23T09:47:59;21.10;99.90
64501;DHT22;50874;24.150;-110.320;2023-05-23T09:50:31;21.20;99.90
64501;DHT22;50874;24.150;-110.320;2023-05-23T09:53:00;21.20;99.90
64501;DHT22;50874;24.150;-110.320;2023-05-23T09:55:27;21.30;99.90
64501;DHT22;50874;24.150;-110.320;2023-05-23T09:57:54;21.40;99.90
64501;DHT22;50874;24.150;-110.320;2023-05-23T10:00:23;21.40;99.90
64501;DHT22;50874;24.150;-110.320;2023-05-23T10:03:10;21.50;99.90
64501;DHT22;50874;24.150;-110.320;2023-05-23T10:05:46;21.60;99.90
64501;DHT22;50874;24.150;-110.320;2023-05-23T10:08:43;21.60;99.90
64501;DHT22;50874;24.150;-110.320;2023-05-23T10:13:49;21.60;99.90
64501;DHT22;50874;24.150;-110.320;2023-05-23T10:16:22;21.60;99.90
64501;DHT22;50874;24.150;-110.320;2023-05-23T10:18:56;21.70;99.90
64501;DHT22;50874;24.150;-110.320;2023-05-23T10:21:32;21.70;99.90
64501;DHT22;50874;24.150;-110.320;2023-05-23T10:24:03;21.70;99.90
64501;DHT22;50874;24.150;-110.320;2023-05-23T10:26:29;21.70;99.90
64501;DHT22;50874;24.150;-110.320;2023-05-23T10:28:57;21.80;99.90
64501;DHT22;50874;24.150;-110.320;2023-05-23T10:31:24;21.80;99.90
64501;DHT22;50874;24.150;-110.320;2023-05-23T10:33:57;21.80;99.90
64501;DHT22;50874;24.150;-110.320;2023-05-23T10:36:33;21.80;99.90
64501;DHT22;50874;24.150;-110.320;2023-05-23T10:39:09;21.80;99.90
64501;DHT22;50874;24.150;-110.320;2023-05-23T10:41:52;21.70;99.90
64501;DHT22;50874;24.150;-110.320;2023-05-23T10:44:30;21.80;99.90
64501;DHT22;50874;24.150;-110.320;2023-05-23T10:46:58;21.90;99.90
64501;DHT22;50874;24.150;-110.320;2023-05-23T10:49:38;21.90;99.90
64501;DHT22;50874;24.150;-110.320;2023-05-23T10:52:06;21.90;99.90
64501;DHT22;50874;24.150;-110.320;2023-05-23T10:54:48;21.90;99.90
64501;DHT22;50874;24.150;-110.320;2023-05-23T10:57:18;21.90;99.90
64501;DHT22;50874;24.150;-110.320;2023-05-23T10:59:45;21.90;99.90
64501;DHT22;50874;24.150;-110.320;2023-05-23T11:02:14;21.90;99.90
64501;DHT22;50874;24.150;-110.320;2023-05-23T11:04:41;21.90;99.90
64501;DHT22;50874;24.150;-110.320;2023-05-23T11:07:31;21.90;99.90
64501;DHT22;50874;24.150;-110.320;2023-05-23T11:12:44;21.90;99.90
64501;DHT22;50874;24.150;-110.320;2023-05-23T11:17:54;22.00;99.90
64501;DHT22;50874;24.150;-110.320;2023-05-23T11:20:24;22.00;99.90
64501;DHT22;50874;24.150;-110.320;2023-05-23T11:23:01;22.00;99.90
64501;DHT22;50874;24.150;-110.320;2023-05-23T11:28:12;22.00;99.90
64501;DHT22;50874;24.150;-110.320;2023-05-23T11:30:39;22.00;99.90
64501;DHT22;50874;24.150;-110.320;2023-05-23T11:33:11;22.00;99.90
64501;DHT22;50874;24.150;-110.320;2023-05-23T11:35:42;22.00;99.90
64501;DHT22;50874;24.150;-110.320;2023-05-23T11:38:10;21.90;99.90
64501;DHT22;50874;24.150;-110.320;2023-05-23T11:40:40;21.90;99.90
64501;DHT22;50874;24.150;-110.320;2023-05-23T11:43:11;21.90;99.90
64501;DHT22;50874;24.150;-110.320;2023-05-23T11:45:39;21.90;99.90
64501;DHT22;50874;24.150;-110.320;2023-05-23T11:48:10;21.80;99.90
64501;DHT22;50874;24.150;-110.320;2023-05-23T11:50:48;21.90;99.90
64501;DHT22;50874;24.150;-110.320;2023-05-23T11:53:16;21.90;99.90
64501;DHT22;50874;24.150;-110.320;2023-05-23T11:58:15;21.90;99.90
64501;DHT22;50874;24.150;-110.320;2023-05-23T12:00:43;21.90;99.90
64501;DHT22;50874;24.150;-110.320;2023-05-23T12:03:10;21.80;99.70
64501;DHT22;50874;24.150;-110.320;2023-05-23T12:05:36;21.80;99.00
64501;DHT22;50874;24.150;-110.320;2023-05-23T12:08:03;21.80;98.50
64501;DHT22;50874;24.150;-110.320;2023-05-23T12:10:29;21.80;97.80
64501;DHT22;50874;24.150;-110.320;2023-05-23T12:12:56;21.70;97.00
64501;DHT22;50874;24.150;-110.320;2023-05-23T12:15:26;21.70;96.10
64501;DHT22;50874;24.150;-110.320;2023-05-23T12:17:53;21.70;95.60
64501;DHT22;50874;24.150;-110.320;2023-05-23T12:20:21;21.60;94.50
64501;DHT22;50874;24.150;-110.320;2023-05-23T12:22:47;21.60;94.30
64501;DHT22;50874;24.150;-110.320;2023-05-23T12:25:14;21.60;93.30
64501;DHT22;50874;24.150;-110.320;2023-05-23T12:27:41;21.60;92.90
64501;DHT22;50874;24.150;-110.320;2023-05-23T12:30:12;21.60;92.40
64501;DHT22;50874;24.150;-110.320;2023-05-23T12:32:40;21.60;91.50
64501;DHT22;50874;24.150;-110.320;2023-05-23T12:35:08;21.50;90.70
64501;DHT22;50874;24.150;-110.320;2023-05-23T12:37:39;21.50;90.30
64501;DHT22;50874;24.150;-110.320;2023-05-23T12:40:16;21.40;90.00
64501;DHT22;50874;24.150;-110.320;2023-05-23T12:42:50;21.30;89.70
64501;DHT22;50874;24.150;-110.320;2023-05-23T12:45:24;21.20;89.70
64501;DHT22;50874;24.150;-110.320;2023-05-23T12:47:55;21.20;89.30
64501;DHT22;50874;24.150;-110.320;2023-05-23T12:50:22;21.10;89.20
64501;DHT22;50874;24.150;-110.320;2023-05-23T12:52:48;21.10;89.00
64501;DHT22;50874;24.150;-110.320;2023-05-23T12:55:15;21.40;88.00
64501;DHT22;50874;24.150;-110.320;2023-05-23T12:57:41;21.90;86.10
64501;DHT22;50874;24.150;-110.320;2023-05-23T13:00:08;22.30;84.50
64501;DHT22;50874;24.150;-110.320;2023-05-23T13:02:35;22.70;81.10
64501;DHT22;50874;24.150;-110.320;2023-05-23T13:05:02;23.20;80.80
64501;DHT22;50874;24.150;-110.320;2023-05-23T13:07:29;23.60;78.90
64501;DHT22;50874;24.150;-110.320;2023-05-23T13:09:56;23.80;76.20
64501;DHT22;50874;24.150;-110.320;2023-05-23T13:12:22;24.00;75.80
64501;DHT22;50874;24.150;-110.320;2023-05-23T13:14:49;24.30;74.00
64501;DHT22;50874;24.150;-110.320;2023-05-23T13:17:16;24.60;72.20
64501;DHT22;50874;24.150;-110.320;2023-05-23T13:19:43;24.90;73.70
64501;DHT22;50874;24.150;-110.320;2023-05-23T13:22:09;25.20;76.20
64501;DHT22;50874;24.150;-110.320;2023-05-23T13:24:37;25.20;76.20
64501;DHT22;50874;24.150;-110.320;2023-05-23T13:27:04;25.30;75.30
64501;DHT22;50874;24.150;-110.320;2023-05-23T13:29:32;25.40;71.70
64501;DHT22;50874;24.150;-110.320;2023-05-23T13:31:59;25.60;70.90
64501;DHT22;50874;24.150;-110.320;2023-05-23T13:34:26;25.70;70.20
64501;DHT22;50874;24.150;-110.320;2023-05-23T13:36:53;25.80;69.10
64501;DHT22;50874;24.150;-110.320;2023-05-23T13:39:20;26.10;66.30
64501;DHT22;50874;24.150;-110.320;2023-05-23T13:41:48;26.30;63.10
64501;DHT22;50874;24.150;-110.320;2023-05-23T13:44:15;26.60;62.40
64501;DHT22;50874;24.150;-110.320;2023-05-23T13:46:42;26.80;60.00
64501;DHT22;50874;24.150;-110.320;2023-05-23T13:49:09;27.30;59.10
64501;DHT22;50874;24.150;-110.320;2023-05-23T13:51:35;27.70;58.40
64501;DHT22;50874;24.150;-110.320;2023-05-23T13:54:04;28.10;57.50
64501;DHT22;50874;24.150;-110.320;2023-05-23T13:56:31;28.40;55.10
64501;DHT22;50874;24.150;-110.320;2023-05-23T13:58:58;28.80;54.30
64501;DHT22;50874;24.150;-110.320;2023-05-23T14:01:25;29.30;53.90
64501;DHT22;50874;24.150;-110.320;2023-05-23T14:03:51;29.70;53.90
64501;DHT22;50874;24.150;-110.320;2023-05-23T14:06:18;29.90;54.20
64501;DHT22;50874;24.150;-110.320;2023-05-23T14:08:44;29.80;54.70
64501;DHT22;50874;24.150;-110.320;2023-05-23T14:11:11;30.00;54.60
64501;DHT22;50874;24.150;-110.320;2023-05-23T14:13:37;30.20;54.20
64501;DHT22;50874;24.150;-110.320;2023-05-23T14:16:04;30.20;53.70
64501;DHT22;50874;24.150;-110.320;2023-05-23T14:18:31;29.90;54.70
64501;DHT22;50874;24.150;-110.320;2023-05-23T14:20:57;29.90;55.80
64501;DHT22;50874;24.150;-110.320;2023-05-23T14:23:24;30.00;56.20
64501;DHT22;50874;24.150;-110.320;2023-05-23T14:25:50;30.40;56.50
64501;DHT22;50874;24.150;-110.320;2023-05-23T14:28:16;30.40;58.60
64501;DHT22;50874;24.150;-110.320;2023-05-23T14:30:43;30.20;59.50
64501;DHT22;50874;24.150;-110.320;2023-05-23T14:33:09;30.20;60.40
64501;DHT22;50874;24.150;-110.320;2023-05-23T14:35:36;30.30;62.20
64501;DHT22;50874;24.150;-110.320;2023-05-23T14:38:04;30.70;63.60
64501;DHT22;50874;24.150;-110.320;2023-05-23T14:40:30;30.70;61.60
64501;DHT22;50874;24.150;-110.320;2023-05-23T14:42:57;30.80;58.80
64501;DHT22;50874;24.150;-110.320;2023-05-23T14:45:23;30.60;60.80
64501;DHT22;50874;24.150;-110.320;2023-05-23T14:47:55;30.40;61.20
64501;DHT22;50874;24.150;-110.320;2023-05-23T14:50:22;30.00;62.50
64501;DHT22;50874;24.150;-110.320;2023-05-23T14:52:48;30.00;63.00
64501;DHT22;50874;24.150;-110.320;2023-05-23T14:55:15;29.90;65.00
64501;DHT22;50874;24.150;-110.320;2023-05-23T14:57:41;29.60;67.30
64501;DHT22;50874;24.150;-110.320;2023-05-23T15:00:09;29.90;68.80
64501;DHT22;50874;24.150;-110.320;2023-05-23T15:02:36;30.40;66.90
64501;DHT22;50874;24.150;-110.320;2023-05-23T15:05:03;30.40;66.20
64501;DHT22;50874;24.150;-110.320;2023-05-23T15:07:30;30.20;65.90
64501;DHT22;50874;24.150;-110.320;2023-05-23T15:09:57;30.00;66.20